sensor_id;sensor_type;location;lat;lon;timestamp;P1;durP1;ratioP1;P2;durP2;ratioP2
8088;SDS011;57635;49.194;12.104;2022-10-16T00:01:04;4.17;;;3.87;;
8088;SDS011;57635;49.194;12.104;2022-10-16T00:03:34;7.83;;;4.03;;
8088;SDS011;57635;49.194;12.104;2022-10-16T00:06:04;3.60;;;3.30;;
8088;SDS011;57635;49.194;12.104;2022-10-16T00:08:33;3.73;;;3.53;;
8088;SDS011;57635;49.194;12.104;2022-10-16T00:11:02;3.80;;;3.60;;
8088;SDS011;57635;49.194;12.104;2022-10-16T00:13:31;4.03;;;3.73;;
8088;SDS011;57635;49.194;12.104;2022-10-16T00:16:00;7.27;;;3.73;;
8088;SDS011;57635;49.194;12.104;2022-10-16T00:18:29;4.60;;;4.07;;
8088;SDS011;57635;49.194;12.104;2022-10-16T00:21:02;3.90;;;3.60;;
8088;SDS011;57635;49.194;12.104;2022-10-16T00:23:31;4.63;;;3.60;;
8088;SDS011;57635;49.194;12.104;2022-10-16T00:26:01;4.13;;;3.50;;
8088;SDS011;57635;49.194;12.104;2022-10-16T00:28:31;5.60;;;3.60;;
8088;SDS011;57635;49.194;12.104;2022-10-16T00:31:02;3.60;;;3.40;;
8088;SDS011;57635;49.194;12.104;2022-10-16T00:33:31;3.97;;;3.73;;
8088;SDS011;57635;49.194;12.104;2022-10-16T00:35:59;3.87;;;3.53;;
8088;SDS011;57635;49.194;12.104;2022-10-16T00:38:29;3.80;;;3.57;;
8088;SDS011;57635;49.194;12.104;2022-10-16T00:40:57;3.30;;;3.20;;
8088;SDS011;57635;49.194;12.104;2022-10-16T00:43:36;4.07;;;3.80;;
8088;SDS011;57635;49.194;12.104;2022-10-16T00:46:09;3.93;;;3.70;;
8088;SDS011;57635;49.194;12.104;2022-10-16T00:48:40;4.43;;;3.83;;
8088;SDS011;57635;49.194;12.104;2022-10-16T00:51:08;4.03;;;3.70;;
8088;SDS011;57635;49.194;12.104;2022-10-16T00:53:38;4.13;;;3.50;;
8088;SDS011;57635;49.194;12.104;2022-10-16T00:56:06;4.03;;;3.40;;
8088;SDS011;57635;49.194;12.104;2022-10-16T00:58:35;3.43;;;3.10;;
8088;SDS011;57635;49.194;12.104;2022-10-16T01:01:03;3.50;;;3.20;;
8088;SDS011;57635;49.194;12.104;2022-10-16T01:03:32;3.87;;;3.30;;
8088;SDS011;57635;49.194;12.104;2022-10-16T01:06:07;4.83;;;3.20;;
8088;SDS011;57635;49.194;12.104;2022-10-16T01:08:47;3.70;;;3.40;;
8088;SDS011;57635;49.194;12.104;2022-10-16T01:11:25;4.07;;;3.60;;
8088;SDS011;57635;49.194;12.104;2022-10-16T01:13:58;3.77;;;3.37;;
8088;SDS011;57635;49.194;12.104;2022-10-16T01:16:31;3.70;;;3.40;;
8088;SDS011;57635;49.194;12.104;2022-10-16T01:19:05;3.20;;;3.03;;
8088;SDS011;57635;49.194;12.104;2022-10-16T01:21:38;4.23;;;3.80;;
8088;SDS011;57635;49.194;12.104;2022-10-16T01:24:11;3.60;;;3.30;;
8088;SDS011;57635;49.194;12.104;2022-10-16T01:26:50;5.43;;;3.23;;
8088;SDS011;57635;49.194;12.104;2022-10-16T01:29:37;3.70;;;3.40;;
8088;SDS011;57635;49.194;12.104;2022-10-16T01:32:09;3.97;;;3.53;;
8088;SDS011;57635;49.194;12.104;2022-10-16T01:34:41;3.50;;;3.20;;
8088;SDS011;57635;49.194;12.104;2022-10-16T01:37:13;3.90;;;3.53;;
8088;SDS011;57635;49.194;12.104;2022-10-16T01:39:45;4.33;;;3.40;;
8088;SDS011;57635;49.194;12.104;2022-10-16T01:42:15;4.33;;;3.90;;
8088;SDS011;57635;49.194;12.104;2022-10-16T01:44:45;3.13;;;2.90;;
8088;SDS011;57635;49.194;12.104;2022-10-16T01:47:14;3.47;;;3.17;;
8088;SDS011;57635;49.194;12.104;2022-10-16T01:49:43;3.63;;;3.30;;
8088;SDS011;57635;49.194;12.104;2022-10-16T01:52:14;3.90;;;3.70;;
8088;SDS011;57635;49.194;12.104;2022-10-16T01:54:43;4.27;;;3.43;;
8088;SDS011;57635;49.194;12.104;2022-10-16T01:57:15;3.57;;;3.27;;
8088;SDS011;57635;49.194;12.104;2022-10-16T01:59:44;4.10;;;3.80;;
8088;SDS011;57635;49.194;12.104;2022-10-16T02:02:14;3.83;;;3.53;;
8088;SDS011;57635;49.194;12.104;2022-10-16T02:04:44;4.70;;;3.30;;
8088;SDS011;57635;49.194;12.104;2022-10-16T02:07:13;3.90;;;3.60;;
8088;SDS011;57635;49.194;12.104;2022-10-16T02:09:42;3.70;;;3.40;;
8088;SDS011;57635;49.194;12.104;2022-10-16T02:12:13;3.40;;;3.20;;
8088;SDS011;57635;49.194;12.104;2022-10-16T02:14:47;3.90;;;3.50;;
8088;SDS011;57635;49.194;12.104;2022-10-16T02:17:15;4.53;;;3.80;;
8088;SDS011;57635;49.194;12.104;2022-10-16T02:19:44;5.47;;;3.80;;
8088;SDS011;57635;49.194;12.104;2022-10-16T02:22:15;3.60;;;3.40;;
8088;SDS011;57635;49.194;12.104;2022-10-16T02:24:49;4.40;;;3.30;;
8088;SDS011;57635;49.194;12.104;2022-10-16T02:27:22;3.70;;;3.40;;
8088;SDS011;57635;49.194;12.104;2022-10-16T02:29:53;5.17;;;3.60;;
8088;SDS011;57635;49.194;12.104;2022-10-16T02:32:27;4.27;;;3.50;;
8088;SDS011;57635;49.194;12.104;2022-10-16T02:34:58;4.53;;;4.03;;
8088;SDS011;57635;49.194;12.104;2022-10-16T02:37:27;4.27;;;3.60;;
8088;SDS011;57635;49.194;12.104;2022-10-16T02:39:56;3.80;;;3.60;;
8088;SDS011;57635;49.194;12.104;2022-10-16T02:42:31;4.43;;;4.13;;
8088;SDS011;57635;49.194;12.104;2022-10-16T02:45:01;4.17;;;3.83;;
8088;SDS011;57635;49.194;12.104;2022-10-16T02:47:30;3.97;;;3.60;;
8088;SDS011;57635;49.194;12.104;2022-10-16T02:49:58;5.07;;;4.13;;
8088;SDS011;57635;49.194;12.104;2022-10-16T02:52:26;4.10;;;3.80;;
8088;SDS011;57635;49.194;12.104;2022-10-16T02:54:55;4.10;;;3.80;;
8088;SDS011;57635;49.194;12.104;2022-10-16T02:57:23;4.03;;;3.70;;
8088;SDS011;57635;49.194;12.104;2022-10-16T02:59:53;4.67;;;4.00;;
8088;SDS011;57635;49.194;12.104;2022-10-16T03:02:21;3.90;;;3.70;;
8088;SDS011;57635;49.194;12.104;2022-10-16T03:04:49;4.80;;;3.83;;
8088;SDS011;57635;49.194;12.104;2022-10-16T03:07:17;4.87;;;4.30;;
8088;SDS011;57635;49.194;12.104;2022-10-16T03:09:45;4.13;;;3.93;;
8088;SDS011;57635;49.194;12.104;2022-10-16T03:12:13;4.53;;;4.20;;
8088;SDS011;57635;49.194;12.104;2022-10-16T03:14:42;5.67;;;4.30;;
8088;SDS011;57635;49.194;12.104;2022-10-16T03:17:11;4.90;;;4.43;;
8088;SDS011;57635;49.194;12.104;2022-10-16T03:19:43;4.67;;;4.23;;
8088;SDS011;57635;49.194;12.104;2022-10-16T03:22:12;4.60;;;4.30;;
8088;SDS011;57635;49.194;12.104;2022-10-16T03:24:40;6.57;;;4.10;;
8088;SDS011;57635;49.194;12.104;2022-10-16T03:27:08;4.10;;;3.80;;
8088;SDS011;57635;49.194;12.104;2022-10-16T03:29:36;7.47;;;4.20;;
8088;SDS011;57635;49.194;12.104;2022-10-16T03:32:05;3.93;;;3.73;;
8088;SDS011;57635;49.194;12.104;2022-10-16T03:34:34;4.23;;;4.03;;
8088;SDS011;57635;49.194;12.104;2022-10-16T03:37:03;3.97;;;3.77;;
8088;SDS011;57635;49.194;12.104;2022-10-16T03:39:31;6.03;;;4.43;;
8088;SDS011;57635;49.194;12.104;2022-10-16T03:41:59;3.90;;;3.60;;
8088;SDS011;57635;49.194;12.104;2022-10-16T03:44:27;4.30;;;4.00;;
8088;SDS011;57635;49.194;12.104;2022-10-16T03:46:55;5.17;;;3.60;;
8088;SDS011;57635;49.194;12.104;2022-10-16T03:49:23;4.13;;;3.83;;
8088;SDS011;57635;49.194;12.104;2022-10-16T03:51:53;4.00;;;3.70;;
8088;SDS011;57635;49.194;12.104;2022-10-16T03:54:21;3.97;;;3.63;;
8088;SDS011;57635;49.194;12.104;2022-10-16T03:56:49;4.20;;;3.90;;
8088;SDS011;57635;49.194;12.104;2022-10-16T03:59:17;4.07;;;3.77;;
8088;SDS011;57635;49.194;12.104;2022-10-16T04:01:46;3.70;;;3.50;;
8088;SDS011;57635;49.194;12.104;2022-10-16T04:04:14;10.50;;;4.40;;
8088;SDS011;57635;49.194;12.104;2022-10-16T04:06:42;4.17;;;3.87;;
8088;SDS011;57635;49.194;12.104;2022-10-16T04:09:12;4.40;;;4.00;;
8088;SDS011;57635;49.194;12.104;2022-10-16T04:11:40;4.23;;;3.83;;
8088;SDS011;57635;49.194;12.104;2022-10-16T04:14:08;4.63;;;3.70;;
8088;SDS011;57635;49.194;12.104;2022-10-16T04:16:36;4.33;;;4.03;;
8088;SDS011;57635;49.194;12.104;2022-10-16T04:19:04;3.70;;;3.50;;
8088;SDS011;57635;49.194;12.104;2022-10-16T04:21:32;4.33;;;3.87;;
8088;SDS011;57635;49.194;12.104;2022-10-16T04:24:01;4.50;;;4.10;;
8088;SDS011;57635;49.194;12.104;2022-10-16T04:26:31;6.27;;;3.37;;
8088;SDS011;57635;49.194;12.104;2022-10-16T04:28:59;4.30;;;3.80;;
8088;SDS011;57635;49.194;12.104;2022-10-16T04:31:27;4.97;;;3.83;;
8088;SDS011;57635;49.194;12.104;2022-10-16T04:33:55;4.67;;;3.53;;
8088;SDS011;57635;49.194;12.104;2022-10-16T04:36:23;4.87;;;3.63;;
8088;SDS011;57635;49.194;12.104;2022-10-16T04:38:54;4.50;;;4.10;;
8088;SDS011;57635;49.194;12.104;2022-10-16T04:41:22;6.60;;;4.10;;
8088;SDS011;57635;49.194;12.104;2022-10-16T04:43:52;4.10;;;3.80;;
8088;SDS011;57635;49.194;12.104;2022-10-16T04:46:20;3.87;;;3.67;;
8088;SDS011;57635;49.194;12.104;2022-10-16T04:48:48;4.10;;;3.90;;
8088;SDS011;57635;49.194;12.104;2022-10-16T04:51:16;8.07;;;3.97;;
8088;SDS011;57635;49.194;12.104;2022-10-16T04:53:45;4.27;;;3.90;;
8088;SDS011;57635;49.194;12.104;2022-10-16T04:56:13;6.03;;;4.00;;
8088;SDS011;57635;49.194;12.104;2022-10-16T04:58:42;8.03;;;4.10;;
8088;SDS011;57635;49.194;12.104;2022-10-16T05:01:11;4.00;;;3.70;;
8088;SDS011;57635;49.194;12.104;2022-10-16T05:03:40;4.53;;;4.13;;
8088;SDS011;57635;49.194;12.104;2022-10-16T05:06:08;4.10;;;3.70;;
8088;SDS011;57635;49.194;12.104;2022-10-16T05:08:36;4.23;;;3.83;;
8088;SDS011;57635;49.194;12.104;2022-10-16T05:11:04;3.93;;;3.70;;
8088;SDS011;57635;49.194;12.104;2022-10-16T05:13:32;5.47;;;3.97;;
8088;SDS011;57635;49.194;12.104;2022-10-16T05:16:00;5.60;;;4.00;;
8088;SDS011;57635;49.194;12.104;2022-10-16T05:18:30;10.57;;;4.00;;
8088;SDS011;57635;49.194;12.104;2022-10-16T05:20:58;4.40;;;4.20;;
8088;SDS011;57635;49.194;12.104;2022-10-16T05:23:26;4.73;;;4.20;;
8088;SDS011;57635;49.194;12.104;2022-10-16T05:25:55;4.53;;;4.23;;
8088;SDS011;57635;49.194;12.104;2022-10-16T05:28:24;4.40;;;4.10;;
8088;SDS011;57635;49.194;12.104;2022-10-16T05:30:53;5.10;;;4.47;;
8088;SDS011;57635;49.194;12.104;2022-10-16T05:33:21;4.57;;;4.20;;
8088;SDS011;57635;49.194;12.104;2022-10-16T05:35:52;4.87;;;4.40;;
8088;SDS011;57635;49.194;12.104;2022-10-16T05:38:20;4.83;;;4.33;;
8088;SDS011;57635;49.194;12.104;2022-10-16T05:40:51;4.80;;;4.17;;
8088;SDS011;57635;49.194;12.104;2022-10-16T05:43:20;5.93;;;4.17;;
8088;SDS011;57635;49.194;12.104;2022-10-16T05:45:53;5.53;;;5.03;;
8088;SDS011;57635;49.194;12.104;2022-10-16T05:48:22;5.83;;;5.30;;
8088;SDS011;57635;49.194;12.104;2022-10-16T05:50:57;4.40;;;4.10;;
8088;SDS011;57635;49.194;12.104;2022-10-16T05:53:26;4.63;;;4.07;;
8088;SDS011;57635;49.194;12.104;2022-10-16T05:55:56;4.63;;;4.30;;
8088;SDS011;57635;49.194;12.104;2022-10-16T05:58:24;4.10;;;3.90;;
8088;SDS011;57635;49.194;12.104;2022-10-16T06:00:53;3.70;;;3.50;;
8088;SDS011;57635;49.194;12.104;2022-10-16T06:03:22;3.80;;;3.57;;
8088;SDS011;57635;49.194;12.104;2022-10-16T06:05:51;3.97;;;3.67;;
8088;SDS011;57635;49.194;12.104;2022-10-16T06:08:21;3.40;;;3.20;;
8088;SDS011;57635;49.194;12.104;2022-10-16T06:10:59;3.43;;;3.20;;
8088;SDS011;57635;49.194;12.104;2022-10-16T06:13:28;5.43;;;4.60;;
8088;SDS011;57635;49.194;12.104;2022-10-16T06:15:56;4.10;;;3.90;;
8088;SDS011;57635;49.194;12.104;2022-10-16T06:18:25;4.73;;;4.33;;
8088;SDS011;57635;49.194;12.104;2022-10-16T06:20:53;5.90;;;5.30;;
8088;SDS011;57635;49.194;12.104;2022-10-16T06:23:23;8.97;;;7.77;;
8088;SDS011;57635;49.194;12.104;2022-10-16T06:25:51;10.70;;;9.63;;
8088;SDS011;57635;49.194;12.104;2022-10-16T06:28:20;6.43;;;5.83;;
8088;SDS011;57635;49.194;12.104;2022-10-16T06:30:48;6.00;;;5.50;;
8088;SDS011;57635;49.194;12.104;2022-10-16T06:33:16;5.93;;;5.20;;
8088;SDS011;57635;49.194;12.104;2022-10-16T06:35:44;6.87;;;5.43;;
8088;SDS011;57635;49.194;12.104;2022-10-16T06:38:13;7.03;;;4.97;;
8088;SDS011;57635;49.194;12.104;2022-10-16T06:40:42;5.00;;;4.50;;
8088;SDS011;57635;49.194;12.104;2022-10-16T06:43:10;4.20;;;4.00;;
8088;SDS011;57635;49.194;12.104;2022-10-16T06:45:38;5.27;;;4.40;;
8088;SDS011;57635;49.194;12.104;2022-10-16T06:48:07;4.90;;;4.50;;
8088;SDS011;57635;49.194;12.104;2022-10-16T06:50:35;5.67;;;5.17;;
8088;SDS011;57635;49.194;12.104;2022-10-16T06:53:03;5.10;;;4.80;;
8088;SDS011;57635;49.194;12.104;2022-10-16T06:55:31;5.20;;;4.50;;
8088;SDS011;57635;49.194;12.104;2022-10-16T06:58:00;6.33;;;5.40;;
8088;SDS011;57635;49.194;12.104;2022-10-16T07:00:28;5.87;;;4.97;;
8088;SDS011;57635;49.194;12.104;2022-10-16T07:02:57;4.37;;;4.17;;
8088;SDS011;57635;49.194;12.104;2022-10-16T07:05:25;4.93;;;4.53;;
8088;SDS011;57635;49.194;12.104;2022-10-16T07:07:53;17.57;;;16.00;;
8088;SDS011;57635;49.194;12.104;2022-10-16T07:10:21;18.87;;;16.87;;
8088;SDS011;57635;49.194;12.104;2022-10-16T07:12:50;5.03;;;4.63;;
8088;SDS011;57635;49.194;12.104;2022-10-16T07:15:20;5.53;;;5.03;;
8088;SDS011;57635;49.194;12.104;2022-10-16T07:17:48;5.40;;;5.10;;
8088;SDS011;57635;49.194;12.104;2022-10-16T07:20:16;5.27;;;4.77;;
8088;SDS011;57635;49.194;12.104;2022-10-16T07:22:45;5.70;;;5.30;;
8088;SDS011;57635;49.194;12.104;2022-10-16T07:25:13;5.33;;;4.87;;
8088;SDS011;57635;49.194;12.104;2022-10-16T07:27:41;5.47;;;4.97;;
8088;SDS011;57635;49.194;12.104;2022-10-16T07:30:09;4.73;;;4.43;;
8088;SDS011;57635;49.194;12.104;2022-10-16T07:32:39;4.87;;;4.47;;
8088;SDS011;57635;49.194;12.104;2022-10-16T07:35:07;4.17;;;3.90;;
8088;SDS011;57635;49.194;12.104;2022-10-16T07:37:36;5.10;;;4.07;;
8088;SDS011;57635;49.194;12.104;2022-10-16T07:40:05;6.00;;;4.17;;
8088;SDS011;57635;49.194;12.104;2022-10-16T07:42:34;4.77;;;3.90;;
8088;SDS011;57635;49.194;12.104;2022-10-16T07:45:02;4.33;;;4.00;;
8088;SDS011;57635;49.194;12.104;2022-10-16T07:47:31;4.73;;;4.33;;
8088;SDS011;57635;49.194;12.104;2022-10-16T07:50:01;11.90;;;10.90;;
8088;SDS011;57635;49.194;12.104;2022-10-16T07:52:29;8.30;;;7.50;;
8088;SDS011;57635;49.194;12.104;2022-10-16T07:54:57;4.27;;;3.87;;
8088;SDS011;57635;49.194;12.104;2022-10-16T07:57:25;4.63;;;4.37;;
8088;SDS011;57635;49.194;12.104;2022-10-16T07:59:54;3.93;;;3.73;;
8088;SDS011;57635;49.194;12.104;2022-10-16T08:02:22;4.63;;;4.20;;
8088;SDS011;57635;49.194;12.104;2022-10-16T08:04:50;4.77;;;3.93;;
8088;SDS011;57635;49.194;12.104;2022-10-16T08:07:20;4.63;;;4.33;;
8088;SDS011;57635;49.194;12.104;2022-10-16T08:09:49;4.20;;;3.77;;
8088;SDS011;57635;49.194;12.104;2022-10-16T08:12:17;4.37;;;3.60;;
8088;SDS011;57635;49.194;12.104;2022-10-16T08:14:46;4.50;;;3.83;;
8088;SDS011;57635;49.194;12.104;2022-10-16T08:17:14;3.97;;;3.77;;
8088;SDS011;57635;49.194;12.104;2022-10-16T08:19:44;4.93;;;4.00;;
8088;SDS011;57635;49.194;12.104;2022-10-16T08:22:13;3.80;;;3.50;;
8088;SDS011;57635;49.194;12.104;2022-10-16T08:24:43;3.70;;;3.40;;
8088;SDS011;57635;49.194;12.104;2022-10-16T08:27:12;3.50;;;3.23;;
8088;SDS011;57635;49.194;12.104;2022-10-16T08:29:40;3.17;;;2.90;;
8088;SDS011;57635;49.194;12.104;2022-10-16T08:32:09;3.53;;;3.20;;
8088;SDS011;57635;49.194;12.104;2022-10-16T08:34:37;4.40;;;4.10;;
8088;SDS011;57635;49.194;12.104;2022-10-16T08:37:05;3.40;;;3.20;;
8088;SDS011;57635;49.194;12.104;2022-10-16T08:39:34;4.40;;;3.67;;
8088;SDS011;57635;49.194;12.104;2022-10-16T08:42:13;3.40;;;3.13;;
8088;SDS011;57635;49.194;12.104;2022-10-16T08:48:00;2.67;;;2.57;;
8088;SDS011;57635;49.194;12.104;2022-10-16T08:50:38;4.80;;;3.17;;
8088;SDS011;57635;49.194;12.104;2022-10-16T08:53:09;3.27;;;3.00;;
8088;SDS011;57635;49.194;12.104;2022-10-16T08:55:41;5.73;;;3.30;;
8088;SDS011;57635;49.194;12.104;2022-10-16T08:58:13;3.03;;;2.90;;
8088;SDS011;57635;49.194;12.104;2022-10-16T09:00:44;3.07;;;2.90;;
8088;SDS011;57635;49.194;12.104;2022-10-16T09:03:17;3.70;;;3.10;;
8088;SDS011;57635;49.194;12.104;2022-10-16T09:08:46;4.60;;;3.00;;
8088;SDS011;57635;49.194;12.104;2022-10-16T09:11:22;3.30;;;3.00;;
8088;SDS011;57635;49.194;12.104;2022-10-16T09:13:55;3.40;;;3.13;;
8088;SDS011;57635;49.194;12.104;2022-10-16T09:16:27;3.40;;;3.20;;
8088;SDS011;57635;49.194;12.104;2022-10-16T09:18:58;3.77;;;3.57;;
8088;SDS011;57635;49.194;12.104;2022-10-16T09:21:30;2.73;;;2.53;;
8088;SDS011;57635;49.194;12.104;2022-10-16T09:24:00;3.27;;;2.83;;
8088;SDS011;57635;49.194;12.104;2022-10-16T09:26:36;3.00;;;2.80;;
8088;SDS011;57635;49.194;12.104;2022-10-16T09:29:06;2.70;;;2.60;;
8088;SDS011;57635;49.194;12.104;2022-10-16T09:31:35;4.33;;;3.00;;
8088;SDS011;57635;49.194;12.104;2022-10-16T09:34:04;2.73;;;2.60;;
8088;SDS011;57635;49.194;12.104;2022-10-16T09:36:36;3.10;;;3.00;;
8088;SDS011;57635;49.194;12.104;2022-10-16T09:39:08;3.20;;;2.90;;
8088;SDS011;57635;49.194;12.104;2022-10-16T09:41:38;3.60;;;3.27;;
8088;SDS011;57635;49.194;12.104;2022-10-16T09:44:16;2.53;;;2.33;;
8088;SDS011;57635;49.194;12.104;2022-10-16T09:46:47;3.00;;;2.63;;
8088;SDS011;57635;49.194;12.104;2022-10-16T09:49:20;3.30;;;3.00;;
8088;SDS011;57635;49.194;12.104;2022-10-16T09:51:51;2.80;;;2.60;;
8088;SDS011;57635;49.194;12.104;2022-10-16T09:54:30;3.40;;;2.47;;
8088;SDS011;57635;49.194;12.104;2022-10-16T09:57:04;4.03;;;2.77;;
8088;SDS011;57635;49.194;12.104;2022-10-16T09:59:44;2.57;;;2.47;;
8088;SDS011;57635;49.194;12.104;2022-10-16T10:02:14;3.17;;;2.87;;
8088;SDS011;57635;49.194;12.104;2022-10-16T10:04:45;3.40;;;3.10;;
8088;SDS011;57635;49.194;12.104;2022-10-16T10:07:17;5.50;;;2.60;;
8088;SDS011;57635;49.194;12.104;2022-10-16T10:09:46;2.87;;;2.67;;
8088;SDS011;57635;49.194;12.104;2022-10-16T10:12:17;2.67;;;2.40;;
8088;SDS011;57635;49.194;12.104;2022-10-16T10:14:54;3.30;;;3.00;;
8088;SDS011;57635;49.194;12.104;2022-10-16T10:17:24;2.93;;;2.80;;
8088;SDS011;57635;49.194;12.104;2022-10-16T10:19:53;2.90;;;2.70;;
8088;SDS011;57635;49.194;12.104;2022-10-16T10:22:29;2.93;;;2.83;;
8088;SDS011;57635;49.194;12.104;2022-10-16T10:25:12;2.97;;;2.77;;
8088;SDS011;57635;49.194;12.104;2022-10-16T10:27:57;2.53;;;2.40;;
8088;SDS011;57635;49.194;12.104;2022-10-16T10:30:35;3.37;;;3.07;;
8088;SDS011;57635;49.194;12.104;2022-10-16T10:33:19;2.80;;;2.70;;
8088;SDS011;57635;49.194;12.104;2022-10-16T10:35:52;2.43;;;2.23;;
8088;SDS011;57635;49.194;12.104;2022-10-16T10:38:27;2.80;;;2.50;;
8088;SDS011;57635;49.194;12.104;2022-10-16T10:41:04;2.67;;;2.47;;
8088;SDS011;57635;49.194;12.104;2022-10-16T10:43:43;2.80;;;2.67;;
8088;SDS011;57635;49.194;12.104;2022-10-16T10:46:23;2.73;;;2.53;;
8088;SDS011;57635;49.194;12.104;2022-10-16T10:49:08;3.13;;;2.80;;
8088;SDS011;57635;49.194;12.104;2022-10-16T10:51:45;2.70;;;2.50;;
8088;SDS011;57635;49.194;12.104;2022-10-16T10:54:21;2.80;;;2.60;;
8088;SDS011;57635;49.194;12.104;2022-10-16T10:56:56;4.67;;;2.80;;
8088;SDS011;57635;49.194;12.104;2022-10-16T10:59:32;2.60;;;2.47;;
8088;SDS011;57635;49.194;12.104;2022-10-16T11:02:13;3.20;;;2.60;;
8088;SDS011;57635;49.194;12.104;2022-10-16T11:04:49;3.53;;;2.40;;
8088;SDS011;57635;49.194;12.104;2022-10-16T11:07:34;2.97;;;2.67;;
8088;SDS011;57635;49.194;12.104;2022-10-16T11:10:08;3.33;;;2.70;;
8088;SDS011;57635;49.194;12.104;2022-10-16T11:12:41;2.63;;;2.53;;
8088;SDS011;57635;49.194;12.104;2022-10-16T11:15:11;6.23;;;3.40;;
8088;SDS011;57635;49.194;12.104;2022-10-16T11:17:45;2.77;;;2.57;;
8088;SDS011;57635;49.194;12.104;2022-10-16T11:20:16;2.40;;;2.30;;
8088;SDS011;57635;49.194;12.104;2022-10-16T11:22:48;4.10;;;2.97;;
8088;SDS011;57635;49.194;12.104;2022-10-16T11:25:20;3.27;;;2.90;;
8088;SDS011;57635;49.194;12.104;2022-10-16T11:27:51;2.90;;;2.70;;
8088;SDS011;57635;49.194;12.104;2022-10-16T11:30:24;3.13;;;2.53;;
8088;SDS011;57635;49.194;12.104;2022-10-16T11:33:10;3.80;;;2.60;;
8088;SDS011;57635;49.194;12.104;2022-10-16T11:35:49;2.70;;;2.47;;
8088;SDS011;57635;49.194;12.104;2022-10-16T11:38:23;2.70;;;2.60;;
8088;SDS011;57635;49.194;12.104;2022-10-16T11:40:56;2.70;;;2.50;;
8088;SDS011;57635;49.194;12.104;2022-10-16T11:43:28;2.53;;;2.30;;
8088;SDS011;57635;49.194;12.104;2022-10-16T11:46:02;2.73;;;2.57;;
8088;SDS011;57635;49.194;12.104;2022-10-16T11:48:39;3.13;;;2.83;;
8088;SDS011;57635;49.194;12.104;2022-10-16T11:51:11;2.93;;;2.20;;
8088;SDS011;57635;49.194;12.104;2022-10-16T11:53:45;2.63;;;2.47;;
8088;SDS011;57635;49.194;12.104;2022-10-16T11:56:15;4.60;;;4.17;;
8088;SDS011;57635;49.194;12.104;2022-10-16T11:58:50;2.47;;;2.37;;
8088;SDS011;57635;49.194;12.104;2022-10-16T12:01:22;2.63;;;2.53;;
8088;SDS011;57635;49.194;12.104;2022-10-16T12:04:14;3.00;;;2.70;;
8088;SDS011;57635;49.194;12.104;2022-10-16T12:06:46;2.97;;;2.77;;
8088;SDS011;57635;49.194;12.104;2022-10-16T12:09:18;2.27;;;2.17;;
8088;SDS011;57635;49.194;12.104;2022-10-16T12:11:49;2.63;;;2.43;;
8088;SDS011;57635;49.194;12.104;2022-10-16T12:14:19;2.63;;;2.53;;
8088;SDS011;57635;49.194;12.104;2022-10-16T12:16:53;3.00;;;2.30;;
8088;SDS011;57635;49.194;12.104;2022-10-16T12:19:24;2.50;;;2.30;;
8088;SDS011;57635;49.194;12.104;2022-10-16T12:21:54;2.77;;;2.60;;
8088;SDS011;57635;49.194;12.104;2022-10-16T12:24:31;3.97;;;2.57;;
8088;SDS011;57635;49.194;12.104;2022-10-16T12:27:02;2.83;;;2.70;;
8088;SDS011;57635;49.194;12.104;2022-10-16T12:29:32;2.57;;;2.47;;
8088;SDS011;57635;49.194;12.104;2022-10-16T12:32:03;2.50;;;2.33;;
8088;SDS011;57635;49.194;12.104;2022-10-16T12:34:37;2.93;;;2.73;;
8088;SDS011;57635;49.194;12.104;2022-10-16T12:37:08;3.27;;;2.40;;
8088;SDS011;57635;49.194;12.104;2022-10-16T12:39:38;3.47;;;2.50;;
8088;SDS011;57635;49.194;12.104;2022-10-16T12:42:19;2.60;;;2.40;;
8088;SDS011;57635;49.194;12.104;2022-10-16T12:44:49;3.87;;;2.37;;
8088;SDS011;57635;49.194;12.104;2022-10-16T12:47:35;2.50;;;2.40;;
8088;SDS011;57635;49.194;12.104;2022-10-16T12:52:57;6.47;;;5.97;;
8088;SDS011;57635;49.194;12.104;2022-10-16T12:55:25;4.10;;;3.90;;
8088;SDS011;57635;49.194;12.104;2022-10-16T12:58:00;3.43;;;2.40;;
8088;SDS011;57635;49.194;12.104;2022-10-16T13:00:36;2.60;;;2.40;;
8088;SDS011;57635;49.194;12.104;2022-10-16T13:06:19;2.80;;;2.50;;
8088;SDS011;57635;49.194;12.104;2022-10-16T13:08:59;2.20;;;2.10;;
8088;SDS011;57635;49.194;12.104;2022-10-16T13:11:48;2.97;;;2.23;;
8088;SDS011;57635;49.194;12.104;2022-10-16T13:14:45;2.60;;;2.40;;
8088;SDS011;57635;49.194;12.104;2022-10-16T13:17:23;2.23;;;2.03;;
8088;SDS011;57635;49.194;12.104;2022-10-16T13:19:56;2.70;;;2.50;;
8088;SDS011;57635;49.194;12.104;2022-10-16T13:22:32;2.40;;;2.30;;
8088;SDS011;57635;49.194;12.104;2022-10-16T13:25:10;3.63;;;2.40;;
8088;SDS011;57635;49.194;12.104;2022-10-16T13:27:46;6.07;;;5.67;;
8088;SDS011;57635;49.194;12.104;2022-10-16T13:30:20;4.23;;;3.87;;
8088;SDS011;57635;49.194;12.104;2022-10-16T13:32:56;2.43;;;2.30;;
8088;SDS011;57635;49.194;12.104;2022-10-16T13:35:28;2.60;;;2.47;;
8088;SDS011;57635;49.194;12.104;2022-10-16T13:38:05;2.03;;;1.93;;
8088;SDS011;57635;49.194;12.104;2022-10-16T13:40:49;3.10;;;2.30;;
8088;SDS011;57635;49.194;12.104;2022-10-16T13:43:20;2.33;;;2.23;;
8088;SDS011;57635;49.194;12.104;2022-10-16T13:45:57;2.60;;;2.40;;
8088;SDS011;57635;49.194;12.104;2022-10-16T13:48:28;2.30;;;2.20;;
8088;SDS011;57635;49.194;12.104;2022-10-16T13:51:04;2.40;;;2.30;;
8088;SDS011;57635;49.194;12.104;2022-10-16T13:53:35;4.57;;;2.47;;
8088;SDS011;57635;49.194;12.104;2022-10-16T13:56:04;2.90;;;2.30;;
8088;SDS011;57635;49.194;12.104;2022-10-16T13:58:34;2.93;;;2.73;;
8088;SDS011;57635;49.194;12.104;2022-10-16T14:01:03;2.23;;;1.90;;
8088;SDS011;57635;49.194;12.104;2022-10-16T14:03:33;2.50;;;2.20;;
8088;SDS011;57635;49.194;12.104;2022-10-16T14:06:03;4.73;;;3.70;;
8088;SDS011;57635;49.194;12.104;2022-10-16T14:08:32;4.67;;;2.60;;
8088;SDS011;57635;49.194;12.104;2022-10-16T14:11:02;2.30;;;2.20;;
8088;SDS011;57635;49.194;12.104;2022-10-16T14:13:31;2.63;;;2.43;;
8088;SDS011;57635;49.194;12.104;2022-10-16T14:16:05;2.53;;;1.93;;
8088;SDS011;57635;49.194;12.104;2022-10-16T14:18:35;2.50;;;2.30;;
8088;SDS011;57635;49.194;12.104;2022-10-16T14:21:06;3.80;;;1.70;;
8088;SDS011;57635;49.194;12.104;2022-10-16T14:23:36;4.70;;;2.20;;
8088;SDS011;57635;49.194;12.104;2022-10-16T14:26:11;3.10;;;2.30;;
8088;SDS011;57635;49.194;12.104;2022-10-16T14:28:40;2.47;;;1.90;;
8088;SDS011;57635;49.194;12.104;2022-10-16T14:31:25;2.60;;;2.10;;
8088;SDS011;57635;49.194;12.104;2022-10-16T14:33:55;2.03;;;1.93;;
8088;SDS011;57635;49.194;12.104;2022-10-16T14:36:24;2.37;;;2.27;;
8088;SDS011;57635;49.194;12.104;2022-10-16T14:39:00;2.40;;;2.20;;
8088;SDS011;57635;49.194;12.104;2022-10-16T14:41:32;2.93;;;2.10;;
8088;SDS011;57635;49.194;12.104;2022-10-16T14:44:02;2.50;;;2.40;;
8088;SDS011;57635;49.194;12.104;2022-10-16T14:46:32;2.60;;;2.40;;
8088;SDS011;57635;49.194;12.104;2022-10-16T14:49:03;2.57;;;2.40;;
8088;SDS011;57635;49.194;12.104;2022-10-16T14:51:40;3.73;;;2.63;;
8088;SDS011;57635;49.194;12.104;2022-10-16T14:54:11;2.70;;;2.53;;
8088;SDS011;57635;49.194;12.104;2022-10-16T14:56:46;2.20;;;2.10;;
8088;SDS011;57635;49.194;12.104;2022-10-16T14:59:16;3.20;;;2.03;;
8088;SDS011;57635;49.194;12.104;2022-10-16T15:01:46;2.60;;;2.40;;
8088;SDS011;57635;49.194;12.104;2022-10-16T15:04:15;4.97;;;2.17;;
8088;SDS011;57635;49.194;12.104;2022-10-16T15:06:44;3.13;;;2.23;;
8088;SDS011;57635;49.194;12.104;2022-10-16T15:09:12;3.10;;;2.90;;
8088;SDS011;57635;49.194;12.104;2022-10-16T15:11:41;2.77;;;2.57;;
8088;SDS011;57635;49.194;12.104;2022-10-16T15:14:12;2.63;;;2.43;;
8088;SDS011;57635;49.194;12.104;2022-10-16T15:16:45;2.43;;;2.30;;
8088;SDS011;57635;49.194;12.104;2022-10-16T15:19:13;3.93;;;2.63;;
8088;SDS011;57635;49.194;12.104;2022-10-16T15:21:41;2.40;;;2.30;;
8088;SDS011;57635;49.194;12.104;2022-10-16T15:24:11;2.77;;;2.50;;